sensor_id;sensor_type;location;lat;lon;timestamp;temperature;humidity
28548;DHT22;68292;49.600;8.746;2023-08-01T00:01:02;24.40;60.60
28548;DHT22;68292;49.600;8.746;2023-08-01T00:03:31;24.30;60.60
28548;DHT22;68292;49.600;8.746;2023-08-01T00:06:00;24.40;60.70
28548;DHT22;68292;49.600;8.746;2023-08-01T00:08:28;24.30;60.70
28548;DHT22;68292;49.600;8.746;2023-08-01T00:10:56;24.30;60.80
28548;DHT22;68292;49.600;8.746;2023-08-01T00:13:24;24.30;60.80
28548;DHT22;68292;49.600;8.746;2023-08-01T00:15:52;24.30;60.90
28548;DHT22;68292;49.600;8.746;2023-08-01T00:18:35;24.30;60.90
28548;DHT22;68292;49.600;8.746;2023-08-01T00:21:03;24.30;61.10
28548;DHT22;68292;49.600;8.746;2023-08-01T00:23:35;24.30;61.00
28548;DHT22;68292;49.600;8.746;2023-08-01T00:26:03;24.30;61.10
28548;DHT22;68292;49.600;8.746;2023-08-01T00:28:32;24.30;61.10
28548;DHT22;68292;49.600;8.746;2023-08-01T00:31:04;24.30;61.20
28548;DHT22;68292;49.600;8.746;2023-08-01T00:33:35;24.30;61.70
28548;DHT22;68292;49.600;8.746;2023-08-01T00:36:03;24.30;61.40
28548;DHT22;68292;49.600;8.746;2023-08-01T00:38:36;24.30;61.40
28548;DHT22;68292;49.600;8.746;2023-08-01T00:41:04;24.30;61.40
28548;DHT22;68292;49.600;8.746;2023-08-01T00:43:32;24.30;61.40
28548;DHT22;68292;49.600;8.746;2023-08-01T00:46:01;24.20;61.40
28548;DHT22;68292;49.600;8.746;2023-08-01T00:48:32;24.30;61.60
28548;DHT22;68292;49.600;8.746;2023-08-01T00:51:04;24.30;61.50
28548;DHT22;68292;49.600;8.746;2023-08-01T00:53:33;24.30;61.80
28548;DHT22;68292;49.600;8.746;2023-08-01T00:56:03;24.30;61.60
28548;DHT22;68292;49.600;8.746;2023-08-01T00:58:32;24.30;61.70
28548;DHT22;68292;49.600;8.746;2023-08-01T01:01:00;24.20;61.50
28548;DHT22;68292;49.600;8.746;2023-08-01T01:03:31;24.30;61.70
28548;DHT22;68292;49.600;8.746;2023-08-01T01:06:06;24.30;61.60
28548;DHT22;68292;49.600;8.746;2023-08-01T01:08:37;24.30;62.00
28548;DHT22;68292;49.600;8.746;2023-08-01T01:11:05;24.30;61.60
28548;DHT22;68292;49.600;8.746;2023-08-01T01:13:34;24.20;61.40
28548;DHT22;68292;49.600;8.746;2023-08-01T01:16:03;24.30;61.50
28548;DHT22;68292;49.600;8.746;2023-08-01T01:18:31;24.20;61.60
28548;DHT22;68292;49.600;8.746;2023-08-01T01:21:01;24.20;61.60
28548;DHT22;68292;49.600;8.746;2023-08-01T01:23:30;24.20;61.80
28548;DHT22;68292;49.600;8.746;2023-08-01T01:25:58;24.20;61.70
28548;DHT22;68292;49.600;8.746;2023-08-01T01:28:28;24.20;61.80
28548;DHT22;68292;49.600;8.746;2023-08-01T01:30:57;24.20;61.70
28548;DHT22;68292;49.600;8.746;2023-08-01T01:33:26;24.20;61.90
28548;DHT22;68292;49.600;8.746;2023-08-01T01:35:54;24.20;61.90
28548;DHT22;68292;49.600;8.746;2023-08-01T01:38:23;24.20;61.80
28548;DHT22;68292;49.600;8.746;2023-08-01T01:40:52;24.20;61.90
28548;DHT22;68292;49.600;8.746;2023-08-01T01:43:20;24.20;61.90
28548;DHT22;68292;49.600;8.746;2023-08-01T01:45:48;24.20;61.90
28548;DHT22;68292;49.600;8.746;2023-08-01T01:48:16;24.30;62.00
28548;DHT22;68292;49.600;8.746;2023-08-01T01:50:44;24.20;62.10
28548;DHT22;68292;49.600;8.746;2023-08-01T01:53:12;24.20;62.00
28548;DHT22;68292;49.600;8.746;2023-08-01T01:55:43;24.30;62.20
28548;DHT22;68292;49.600;8.746;2023-08-01T01:58:22;24.30;62.50
28548;DHT22;68292;49.600;8.746;2023-08-01T02:00:50;24.20;62.10
28548;DHT22;68292;49.600;8.746;2023-08-01T02:03:18;24.20;62.30
28548;DHT22;68292;49.600;8.746;2023-08-01T02:05:46;24.30;62.40
28548;DHT22;68292;49.600;8.746;2023-08-01T02:08:15;24.30;62.40
28548;DHT22;68292;49.600;8.746;2023-08-01T02:10:44;24.30;62.60
28548;DHT22;68292;49.600;8.746;2023-08-01T02:13:12;24.20;63.00
28548;DHT22;68292;49.600;8.746;2023-08-01T02:15:40;24.20;62.80
28548;DHT22;68292;49.600;8.746;2023-08-01T02:18:08;24.20;62.80
28548;DHT22;68292;49.600;8.746;2023-08-01T02:20:36;24.20;62.80
28548;DHT22;68292;49.600;8.746;2023-08-01T02:23:05;24.20;62.70
28548;DHT22;68292;49.600;8.746;2023-08-01T02:25:38;24.20;62.80
28548;DHT22;68292;49.600;8.746;2023-08-01T02:28:08;24.20;63.20
28548;DHT22;68292;49.600;8.746;2023-08-01T02:30:37;24.20;63.00
28548;DHT22;68292;49.600;8.746;2023-08-01T02:33:05;24.20;62.80
28548;DHT22;68292;49.600;8.746;2023-08-01T02:35:33;24.20;62.90
28548;DHT22;68292;49.600;8.746;2023-08-01T02:38:01;24.20;62.90
28548;DHT22;68292;49.600;8.746;2023-08-01T02:40:30;24.20;63.00
28548;DHT22;68292;49.600;8.746;2023-08-01T02:42:58;24.10;62.90
28548;DHT22;68292;49.600;8.746;2023-08-01T02:45:27;24.20;63.00
28548;DHT22;68292;49.600;8.746;2023-08-01T02:47:55;24.20;63.10
28548;DHT22;68292;49.600;8.746;2023-08-01T02:50:25;24.20;63.00
28548;DHT22;68292;49.600;8.746;2023-08-01T02:52:53;24.10;63.00
28548;DHT22;68292;49.600;8.746;2023-08-01T02:55:21;24.10;63.00
28548;DHT22;68292;49.600;8.746;2023-08-01T02:57:49;24.10;63.00
28548;DHT22;68292;49.600;8.746;2023-08-01T03:00:17;24.10;63.00
28548;DHT22;68292;49.600;8.746;2023-08-01T03:02:47;24.10;63.00
28548;DHT22;68292;49.600;8.746;2023-08-01T03:05:17;24.10;63.30
28548;DHT22;68292;49.600;8.746;2023-08-01T03:07:45;24.10;63.30
28548;DHT22;68292;49.600;8.746;2023-08-01T03:10:13;24.10;63.30
28548;DHT22;68292;49.600;8.746;2023-08-01T03:13:01;24.10;63.20
28548;DHT22;68292;49.600;8.746;2023-08-01T03:15:29;24.20;63.20
28548;DHT22;68292;49.600;8.746;2023-08-01T03:18:00;24.10;63.20
28548;DHT22;68292;49.600;8.746;2023-08-01T03:20:28;24.10;63.30
28548;DHT22;68292;49.600;8.746;2023-08-01T03:22:56;24.20;63.30
28548;DHT22;68292;49.600;8.746;2023-08-01T03:25:24;24.10;63.20
28548;DHT22;68292;49.600;8.746;2023-08-01T03:27:54;24.10;63.30
28548;DHT22;68292;49.600;8.746;2023-08-01T03:30:23;24.10;63.40
28548;DHT22;68292;49.600;8.746;2023-08-01T03:32:53;24.10;63.30
28548;DHT22;68292;49.600;8.746;2023-08-01T03:35:23;24.10;63.20
28548;DHT22;68292;49.600;8.746;2023-08-01T03:37:51;24.10;64.30
28548;DHT22;68292;49.600;8.746;2023-08-01T03:40:19;24.10;63.30
28548;DHT22;68292;49.600;8.746;2023-08-01T03:42:48;24.10;63.40
28548;DHT22;68292;49.600;8.746;2023-08-01T03:45:16;24.10;63.40
28548;DHT22;68292;49.600;8.746;2023-08-01T03:47:44;24.10;63.40
28548;DHT22;68292;49.600;8.746;2023-08-01T03:50:12;24.10;63.40
28548;DHT22;68292;49.600;8.746;2023-08-01T03:52:42;24.10;63.40
28548;DHT22;68292;49.600;8.746;2023-08-01T03:55:12;24.10;63.50
28548;DHT22;68292;49.600;8.746;2023-08-01T03:57:41;24.10;63.50
28548;DHT22;68292;49.600;8.746;2023-08-01T04:00:10;24.10;63.60
28548;DHT22;68292;49.600;8.746;2023-08-01T04:02:40;24.10;63.60
28548;DHT22;68292;49.600;8.746;2023-08-01T04:05:12;24.10;63.70
28548;DHT22;68292;49.600;8.746;2023-08-01T04:07:42;24.10;63.70
28548;DHT22;68292;49.600;8.746;2023-08-01T04:10:10;24.10;63.80
28548;DHT22;68292;49.600;8.746;2023-08-01T04:12:38;24.10;63.80
28548;DHT22;68292;49.600;8.746;2023-08-01T04:15:07;24.10;64.00
28548;DHT22;68292;49.600;8.746;2023-08-01T04:17:35;24.10;64.00
28548;DHT22;68292;49.600;8.746;2023-08-01T04:20:05;24.10;64.00
28548;DHT22;68292;49.600;8.746;2023-08-01T04:22:34;24.10;64.00
28548;DHT22;68292;49.600;8.746;2023-08-01T04:25:03;24.10;64.00
28548;DHT22;68292;49.600;8.746;2023-08-01T04:27:32;24.10;64.30
28548;DHT22;68292;49.600;8.746;2023-08-01T04:30:00;24.10;64.10
28548;DHT22;68292;49.600;8.746;2023-08-01T04:32:28;24.10;64.00
28548;DHT22;68292;49.600;8.746;2023-08-01T04:34:57;24.10;64.00
28548;DHT22;68292;49.600;8.746;2023-08-01T04:37:25;24.10;64.10
28548;DHT22;68292;49.600;8.746;2023-08-01T04:39:53;24.10;64.10
28548;DHT22;68292;49.600;8.746;2023-08-01T04:42:22;24.10;64.30
28548;DHT22;68292;49.600;8.746;2023-08-01T04:44:50;24.10;64.50
28548;DHT22;68292;49.600;8.746;2023-08-01T04:47:19;24.10;64.60
28548;DHT22;68292;49.600;8.746;2023-08-01T04:49:47;24.00;64.50
28548;DHT22;68292;49.600;8.746;2023-08-01T04:52:15;24.10;64.60
28548;DHT22;68292;49.600;8.746;2023-08-01T04:54:43;24.10;65.40
28548;DHT22;68292;49.600;8.746;2023-08-01T04:57:11;24.10;64.40
28548;DHT22;68292;49.600;8.746;2023-08-01T04:59:41;24.10;64.40
28548;DHT22;68292;49.600;8.746;2023-08-01T05:02:09;24.00;64.50
28548;DHT22;68292;49.600;8.746;2023-08-01T05:04:37;24.00;64.60
28548;DHT22;68292;49.600;8.746;2023-08-01T05:07:05;24.00;64.60
28548;DHT22;68292;49.600;8.746;2023-08-01T05:09:33;24.00;64.50
28548;DHT22;68292;49.600;8.746;2023-08-01T05:12:02;24.00;64.50
28548;DHT22;68292;49.600;8.746;2023-08-01T05:14:30;24.00;64.40
28548;DHT22;68292;49.600;8.746;2023-08-01T05:16:59;24.00;64.50
28548;DHT22;68292;49.600;8.746;2023-08-01T05:19:27;24.00;64.70
28548;DHT22;68292;49.600;8.746;2023-08-01T05:21:55;24.00;64.70
28548;DHT22;68292;49.600;8.746;2023-08-01T05:24:23;24.00;64.70
28548;DHT22;68292;49.600;8.746;2023-08-01T05:26:52;24.00;64.70
28548;DHT22;68292;49.600;8.746;2023-08-01T05:29:20;24.00;64.70
28548;DHT22;68292;49.600;8.746;2023-08-01T05:31:48;24.00;65.20
28548;DHT22;68292;49.600;8.746;2023-08-01T05:34:17;24.00;65.90
28548;DHT22;68292;49.600;8.746;2023-08-01T05:36:46;23.90;66.20
28548;DHT22;68292;49.600;8.746;2023-08-01T05:39:15;23.90;66.10
28548;DHT22;68292;49.600;8.746;2023-08-01T05:41:44;24.00;66.20
28548;DHT22;68292;49.600;8.746;2023-08-01T05:44:12;23.90;66.10
28548;DHT22;68292;49.600;8.746;2023-08-01T05:46:40;23.90;66.00
28548;DHT22;68292;49.600;8.746;2023-08-01T05:49:09;23.90;65.80
28548;DHT22;68292;49.600;8.746;2023-08-01T05:51:38;23.90;65.70
28548;DHT22;68292;49.600;8.746;2023-08-01T05:54:06;23.90;65.60
28548;DHT22;68292;49.600;8.746;2023-08-01T05:56:34;23.90;65.30
28548;DHT22;68292;49.600;8.746;2023-08-01T05:59:02;23.80;65.00
28548;DHT22;68292;49.600;8.746;2023-08-01T06:01:30;23.80;65.00
28548;DHT22;68292;49.600;8.746;2023-08-01T06:03:59;23.90;64.90
28548;DHT22;68292;49.600;8.746;2023-08-01T06:06:27;23.90;64.90
28548;DHT22;68292;49.600;8.746;2023-08-01T06:08:57;23.90;64.90
28548;DHT22;68292;49.600;8.746;2023-08-01T06:11:25;23.80;64.80
28548;DHT22;68292;49.600;8.746;2023-08-01T06:13:53;23.80;64.70
28548;DHT22;68292;49.600;8.746;2023-08-01T06:16:21;23.80;64.50
28548;DHT22;68292;49.600;8.746;2023-08-01T06:18:53;23.80;64.50
28548;DHT22;68292;49.600;8.746;2023-08-01T06:21:22;23.80;64.60
28548;DHT22;68292;49.600;8.746;2023-08-01T06:23:50;23.80;64.50
28548;DHT22;68292;49.600;8.746;2023-08-01T06:26:19;23.80;64.50
28548;DHT22;68292;49.600;8.746;2023-08-01T06:28:47;23.80;64.70
28548;DHT22;68292;49.600;8.746;2023-08-01T06:31:15;23.80;64.60
28548;DHT22;68292;49.600;8.746;2023-08-01T06:33:43;23.80;64.70
28548;DHT22;68292;49.600;8.746;2023-08-01T06:36:11;23.80;64.70
28548;DHT22;68292;49.600;8.746;2023-08-01T06:38:43;23.80;64.60
28548;DHT22;68292;49.600;8.746;2023-08-01T06:41:11;23.70;64.60
28548;DHT22;68292;49.600;8.746;2023-08-01T06:43:40;23.80;64.60
28548;DHT22;68292;49.600;8.746;2023-08-01T06:46:08;23.70;64.50
28548;DHT22;68292;49.600;8.746;2023-08-01T06:48:36;23.70;64.40
28548;DHT22;68292;49.600;8.746;2023-08-01T06:51:04;23.70;64.50
28548;DHT22;68292;49.600;8.746;2023-08-01T06:53:32;23.70;64.50
28548;DHT22;68292;49.600;8.746;2023-08-01T06:56:01;23.70;64.60
28548;DHT22;68292;49.600;8.746;2023-08-01T06:58:29;23.70;64.50
28548;DHT22;68292;49.600;8.746;2023-08-01T07:00:58;23.70;64.50
28548;DHT22;68292;49.600;8.746;2023-08-01T07:03:26;23.70;64.60
28548;DHT22;68292;49.600;8.746;2023-08-01T07:05:54;23.70;64.50
28548;DHT22;68292;49.600;8.746;2023-08-01T07:08:22;23.70;64.50
28548;DHT22;68292;49.600;8.746;2023-08-01T07:10:53;23.80;64.60
28548;DHT22;68292;49.600;8.746;2023-08-01T07:13:21;23.80;64.60
28548;DHT22;68292;49.600;8.746;2023-08-01T07:15:49;23.70;64.50
28548;DHT22;68292;49.600;8.746;2023-08-01T07:18:18;23.80;64.60
28548;DHT22;68292;49.600;8.746;2023-08-01T07:20:46;23.80;64.70
28548;DHT22;68292;49.600;8.746;2023-08-01T07:23:14;23.80;64.70
28548;DHT22;68292;49.600;8.746;2023-08-01T07:25:42;23.70;64.50
28548;DHT22;68292;49.600;8.746;2023-08-01T07:28:11;23.70;64.70
28548;DHT22;68292;49.600;8.746;2023-08-01T07:30:39;23.80;64.80
28548;DHT22;68292;49.600;8.746;2023-08-01T07:33:07;23.70;64.80
28548;DHT22;68292;49.600;8.746;2023-08-01T07:35:36;23.80;64.90
28548;DHT22;68292;49.600;8.746;2023-08-01T07:38:04;23.80;65.00
28548;DHT22;68292;49.600;8.746;2023-08-01T07:40:35;23.80;65.10
28548;DHT22;68292;49.600;8.746;2023-08-01T07:43:04;23.80;65.00
28548;DHT22;68292;49.600;8.746;2023-08-01T07:45:33;23.80;65.10
28548;DHT22;68292;49.600;8.746;2023-08-01T07:48:01;23.80;65.10
28548;DHT22;68292;49.600;8.746;2023-08-01T07:50:30;23.80;65.10
28548;DHT22;68292;49.600;8.746;2023-08-01T07:52:59;23.80;65.10
28548;DHT22;68292;49.600;8.746;2023-08-01T07:55:27;23.90;65.20
28548;DHT22;68292;49.600;8.746;2023-08-01T07:57:55;23.90;65.20
28548;DHT22;68292;49.600;8.746;2023-08-01T08:00:23;23.90;65.20
28548;DHT22;68292;49.600;8.746;2023-08-01T08:02:53;23.90;65.20
28548;DHT22;68292;49.600;8.746;2023-08-01T08:05:21;23.90;65.30
28548;DHT22;68292;49.600;8.746;2023-08-01T08:07:49;23.90;65.30
28548;DHT22;68292;49.600;8.746;2023-08-01T08:10:20;23.90;65.20
28548;DHT22;68292;49.600;8.746;2023-08-01T08:12:48;23.90;65.20
28548;DHT22;68292;49.600;8.746;2023-08-01T08:15:17;23.90;65.00
28548;DHT22;68292;49.600;8.746;2023-08-01T08:17:46;23.90;65.00
28548;DHT22;68292;49.600;8.746;2023-08-01T08:20:14;23.90;65.00
28548;DHT22;68292;49.600;8.746;2023-08-01T08:22:42;23.90;65.00
28548;DHT22;68292;49.600;8.746;2023-08-01T08:25:10;24.00;65.00
28548;DHT22;68292;49.600;8.746;2023-08-01T08:27:40;24.00;65.10
28548;DHT22;68292;49.600;8.746;2023-08-01T08:30:09;24.00;65.20
28548;DHT22;68292;49.600;8.746;2023-08-01T08:32:37;23.90;65.20
28548;DHT22;68292;49.600;8.746;2023-08-01T08:35:06;23.90;65.50
28548;DHT22;68292;49.600;8.746;2023-08-01T08:37:34;23.90;65.60
28548;DHT22;68292;49.600;8.746;2023-08-01T08:40:04;24.00;66.40
28548;DHT22;68292;49.600;8.746;2023-08-01T08:42:34;23.90;65.50
28548;DHT22;68292;49.600;8.746;2023-08-01T08:45:04;23.90;65.10
28548;DHT22;68292;49.600;8.746;2023-08-01T08:47:36;23.90;64.90
28548;DHT22;68292;49.600;8.746;2023-08-01T08:50:06;23.90;64.70
28548;DHT22;68292;49.600;8.746;2023-08-01T08:52:34;23.90;64.60
28548;DHT22;68292;49.600;8.746;2023-08-01T08:55:03;23.90;64.50
28548;DHT22;68292;49.600;8.746;2023-08-01T08:57:33;23.90;64.50
28548;DHT22;68292;49.600;8.746;2023-08-01T09:00:05;23.80;64.40
28548;DHT22;68292;49.600;8.746;2023-08-01T09:02:34;23.80;64.50
28548;DHT22;68292;49.600;8.746;2023-08-01T09:05:03;23.80;64.40
28548;DHT22;68292;49.600;8.746;2023-08-01T09:07:32;23.80;64.50
28548;DHT22;68292;49.600;8.746;2023-08-01T09:10:01;23.80;64.50
28548;DHT22;68292;49.600;8.746;2023-08-01T09:12:33;23.80;64.60
28548;DHT22;68292;49.600;8.746;2023-08-01T09:15:02;23.90;64.80
28548;DHT22;68292;49.600;8.746;2023-08-01T09:17:32;23.90;64.80
28548;DHT22;68292;49.600;8.746;2023-08-01T09:20:04;23.90;65.00
28548;DHT22;68292;49.600;8.746;2023-08-01T09:22:41;23.90;65.30
28548;DHT22;68292;49.600;8.746;2023-08-01T09:25:11;23.90;65.50
28548;DHT22;68292;49.600;8.746;2023-08-01T09:27:39;23.90;65.30
28548;DHT22;68292;49.600;8.746;2023-08-01T09:30:09;23.90;65.50
28548;DHT22;68292;49.600;8.746;2023-08-01T09:32:51;24.00;65.90
28548;DHT22;68292;49.600;8.746;2023-08-01T09:35:19;24.00;66.10
28548;DHT22;68292;49.600;8.746;2023-08-01T09:37:48;24.00;65.90
28548;DHT22;68292;49.600;8.746;2023-08-01T09:40:17;24.10;66.00
28548;DHT22;68292;49.600;8.746;2023-08-01T09:42:45;24.10;66.10
28548;DHT22;68292;49.600;8.746;2023-08-01T09:45:13;24.10;66.00
28548;DHT22;68292;49.600;8.746;2023-08-01T09:47:44;24.10;66.40
28548;DHT22;68292;49.600;8.746;2023-08-01T09:50:20;24.20;66.40
28548;DHT22;68292;49.600;8.746;2023-08-01T09:52:49;24.20;66.50
28548;DHT22;68292;49.600;8.746;2023-08-01T09:55:22;24.30;66.50
28548;DHT22;68292;49.600;8.746;2023-08-01T09:57:57;24.30;66.40
28548;DHT22;68292;49.600;8.746;2023-08-01T10:00:26;24.30;66.60
28548;DHT22;68292;49.600;8.746;2023-08-01T10:02:57;24.40;66.30
28548;DHT22;68292;49.600;8.746;2023-08-01T10:05:30;24.40;66.20
28548;DHT22;68292;49.600;8.746;2023-08-01T10:07:59;24.40;66.50
28548;DHT22;68292;49.600;8.746;2023-08-01T10:10:29;24.40;66.40
28548;DHT22;68292;49.600;8.746;2023-08-01T10:12:57;24.50;66.40
28548;DHT22;68292;49.600;8.746;2023-08-01T10:15:25;24.50;66.40
28548;DHT22;68292;49.600;8.746;2023-08-01T10:17:55;24.50;66.30
28548;DHT22;68292;49.600;8.746;2023-08-01T10:20:25;24.50;67.10
28548;DHT22;68292;49.600;8.746;2023-08-01T10:22:53;24.50;66.10
28548;DHT22;68292;49.600;8.746;2023-08-01T10:25:22;24.50;67.00
28548;DHT22;68292;49.600;8.746;2023-08-01T10:27:58;24.50;66.10
28548;DHT22;68292;49.600;8.746;2023-08-01T10:30:27;24.60;66.10
28548;DHT22;68292;49.600;8.746;2023-08-01T10:32:57;24.60;65.90
28548;DHT22;68292;49.600;8.746;2023-08-01T10:35:33;24.50;65.60
28548;DHT22;68292;49.600;8.746;2023-08-01T10:38:06;24.50;65.30
28548;DHT22;68292;49.600;8.746;2023-08-01T10:40:37;24.60;65.70
28548;DHT22;68292;49.600;8.746;2023-08-01T10:43:06;24.50;65.60
28548;DHT22;68292;49.600;8.746;2023-08-01T10:45:34;24.50;65.60
28548;DHT22;68292;49.600;8.746;2023-08-01T10:48:11;24.60;65.70
28548;DHT22;68292;49.600;8.746;2023-08-01T10:50:40;24.50;65.70
28548;DHT22;68292;49.600;8.746;2023-08-01T10:53:09;24.50;65.80
28548;DHT22;68292;49.600;8.746;2023-08-01T10:55:42;24.60;65.90
28548;DHT22;68292;49.600;8.746;2023-08-01T10:58:10;24.60;66.20
28548;DHT22;68292;49.600;8.746;2023-08-01T11:00:39;24.60;66.30
28548;DHT22;68292;49.600;8.746;2023-08-01T11:03:07;24.60;66.00
28548;DHT22;68292;49.600;8.746;2023-08-01T11:05:37;24.60;65.70
28548;DHT22;68292;49.600;8.746;2023-08-01T11:08:05;24.70;65.50
28548;DHT22;68292;49.600;8.746;2023-08-01T11:10:33;24.60;65.10
28548;DHT22;68292;49.600;8.746;2023-08-01T11:13:02;24.70;65.10
28548;DHT22;68292;49.600;8.746;2023-08-01T11:15:32;24.70;64.70
28548;DHT22;68292;49.600;8.746;2023-08-01T11:18:09;24.70;64.50
28548;DHT22;68292;49.600;8.746;2023-08-01T11:20:39;24.70;64.40
28548;DHT22;68292;49.600;8.746;2023-08-01T11:23:08;24.70;64.40
28548;DHT22;68292;49.600;8.746;2023-08-01T11:25:39;24.70;64.40
28548;DHT22;68292;49.600;8.746;2023-08-01T11:28:10;24.70;64.40
28548;DHT22;68292;49.600;8.746;2023-08-01T11:30:39;24.60;64.30
28548;DHT22;68292;49.600;8.746;2023-08-01T11:33:14;24.60;64.10
28548;DHT22;68292;49.600;8.746;2023-08-01T11:35:44;24.60;63.60
28548;DHT22;68292;49.600;8.746;2023-08-01T11:38:12;24.60;64.00
28548;DHT22;68292;49.600;8.746;2023-08-01T11:40:40;24.60;63.80
28548;DHT22;68292;49.600;8.746;2023-08-01T11:43:09;24.60;64.30
28548;DHT22;68292;49.600;8.746;2023-08-01T11:45:37;24.60;64.40
28548;DHT22;68292;49.600;8.746;2023-08-01T11:48:16;24.60;64.60
28548;DHT22;68292;49.600;8.746;2023-08-01T11:50:45;24.60;64.40
28548;DHT22;68292;49.600;8.746;2023-08-01T11:53:20;24.60;64.30
28548;DHT22;68292;49.600;8.746;2023-08-01T11:55:50;24.60;64.30
28548;DHT22;68292;49.600;8.746;2023-08-01T11:58:28;24.60;64.60
28548;DHT22;68292;49.600;8.746;2023-08-01T12:01:04;24.60;64.60
28548;DHT22;68292;49.600;8.746;2023-08-01T12:03:42;24.60;64.40
28548;DHT22;68292;49.600;8.746;2023-08-01T12:06:12;24.60;63.90
28548;DHT22;68292;49.600;8.746;2023-08-01T12:08:41;24.70;64.00
28548;DHT22;68292;49.600;8.746;2023-08-01T12:11:23;24.70;64.20
28548;DHT22;68292;49.600;8.746;2023-08-01T12:14:02;24.70;64.30
28548;DHT22;68292;49.600;8.746;2023-08-01T12:16:31;24.70;63.40
28548;DHT22;68292;49.600;8.746;2023-08-01T12:19:00;24.70;63.20
28548;DHT22;68292;49.600;8.746;2023-08-01T12:21:31;24.70;63.20
28548;DHT22;68292;49.600;8.746;2023-08-01T12:24:01;24.70;62.70
28548;DHT22;68292;49.600;8.746;2023-08-01T12:26:29;24.70;63.00
28548;DHT22;68292;49.600;8.746;2023-08-01T12:28:57;24.70;63.20
28548;DHT22;68292;49.600;8.746;2023-08-01T12:31:25;24.80;63.10
28548;DHT22;68292;49.600;8.746;2023-08-01T12:33:54;24.80;63.30
28548;DHT22;68292;49.600;8.746;2023-08-01T12:36:22;24.80;63.00
28548;DHT22;68292;49.600;8.746;2023-08-01T12:38:51;24.80;62.70
28548;DHT22;68292;49.600;8.746;2023-08-01T12:41:19;24.80;62.50
28548;DHT22;68292;49.600;8.746;2023-08-01T12:43:47;24.80;62.70
28548;DHT22;68292;49.600;8.746;2023-08-01T12:46:15;24.90;62.70
28548;DHT22;68292;49.600;8.746;2023-08-01T12:48:44;24.80;62.50
28548;DHT22;68292;49.600;8.746;2023-08-01T12:51:12;24.90;62.40
28548;DHT22;68292;49.600;8.746;2023-08-01T12:53:41;24.90;62.20
28548;DHT22;68292;49.600;8.746;2023-08-01T12:56:13;24.90;62.20
28548;DHT22;68292;49.600;8.746;2023-08-01T12:58:41;24.90;61.80
28548;DHT22;68292;49.600;8.746;2023-08-01T13:01:09;24.90;61.70
28548;DHT22;68292;49.600;8.746;2023-08-01T13:03:37;24.90;61.50
28548;DHT22;68292;49.600;8.746;2023-08-01T13:06:05;24.90;61.40
28548;DHT22;68292;49.600;8.746;2023-08-01T13:08:34;24.90;61.20
28548;DHT22;68292;49.600;8.746;2023-08-01T13:11:09;24.90;61.20
28548;DHT22;68292;49.600;8.746;2023-08-01T13:13:40;24.90;60.40
28548;DHT22;68292;49.600;8.746;2023-08-01T13:16:09;24.90;60.50
28548;DHT22;68292;49.600;8.746;2023-08-01T13:18:37;24.90;60.70
28548;DHT22;68292;49.600;8.746;2023-08-01T13:21:10;24.90;60.70
28548;DHT22;68292;49.600;8.746;2023-08-01T13:23:39;24.90;60.80
28548;DHT22;68292;49.600;8.746;2023-08-01T13:26:07;24.90;60.80
28548;DHT22;68292;49.600;8.746;2023-08-01T13:28:35;24.80;60.80
28548;DHT22;68292;49.600;8.746;2023-08-01T13:31:04;24.90;60.80
28548;DHT22;68292;49.600;8.746;2023-08-01T13:33:32;24.80;60.20
28548;DHT22;68292;49.600;8.746;2023-08-01T13:36:00;24.80;60.40
28548;DHT22;68292;49.600;8.746;2023-08-01T13:38:29;24.80;60.10
28548;DHT22;68292;49.600;8.746;2023-08-01T13:40:59;24.80;60.30
28548;DHT22;68292;49.600;8.746;2023-08-01T13:43:28;24.80;60.30
28548;DHT22;68292;49.600;8.746;2023-08-01T13:45:56;24.80;60.40
28548;DHT22;68292;49.600;8.746;2023-08-01T13:48:25;24.80;60.20
28548;DHT22;68292;49.600;8.746;2023-08-01T13:50:57;24.80;60.20
28548;DHT22;68292;49.600;8.746;2023-08-01T13:53:25;24.80;60.00
28548;DHT22;68292;49.600;8.746;2023-08-01T13:55:54;24.90;60.00
28548;DHT22;68292;49.600;8.746;2023-08-01T13:58:22;24.90;59.60
28548;DHT22;68292;49.600;8.746;2023-08-01T14:00:50;24.90;59.40
28548;DHT22;68292;49.600;8.746;2023-08-01T14:03:18;24.90;59.50
28548;DHT22;68292;49.600;8.746;2023-08-01T14:05:48;24.90;59.50
28548;DHT22;68292;49.600;8.746;2023-08-01T14:08:16;24.90;59.30
28548;DHT22;68292;49.600;8.746;2023-08-01T14:10:45;24.90;59.40
28548;DHT22;68292;49.600;8.746;2023-08-01T14:13:14;24.90;59.50
28548;DHT22;68292;49.600;8.746;2023-08-01T14:15:42;24.90;59.30
28548;DHT22;68292;49.600;8.746;2023-08-01T14:18:10;24.90;59.00
28548;DHT22;68292;49.600;8.746;2023-08-01T14:20:38;24.90;58.90
28548;DHT22;68292;49.600;8.746;2023-08-01T14:23:08;24.90;58.90
28548;DHT22;68292;49.600;8.746;2023-08-01T14:25:36;24.90;58.90
28548;DHT22;68292;49.600;8.746;2023-08-01T14:28:04;24.90;58.80
28548;DHT22;68292;49.600;8.746;2023-08-01T14:30:33;24.90;58.70
28548;DHT22;68292;49.600;8.746;2023-08-01T14:33:01;24.90;58.90
28548;DHT22;68292;49.600;8.746;2023-08-01T14:35:29;24.90;59.50
28548;DHT22;68292;49.600;8.746;2023-08-01T14:37:58;25.00;59.00
28548;DHT22;68292;49.600;8.746;2023-08-01T14:40:28;25.00;58.60
28548;DHT22;68292;49.600;8.746;2023-08-01T14:42:56;25.00;58.70
28548;DHT22;68292;49.600;8.746;2023-08-01T14:45:24;25.00;59.00
28548;DHT22;68292;49.600;8.746;2023-08-01T14:47:53;24.90;58.60
28548;DHT22;68292;49.600;8.746;2023-08-01T14:50:21;24.90;58.90
28548;DHT22;68292;49.600;8.746;2023-08-01T14:52:50;25.00;58.60
28548;DHT22;68292;49.600;8.746;2023-08-01T14:55:18;25.00;58.30
28548;DHT22;68292;49.600;8.746;2023-08-01T14:57:48;25.00;58.40
28548;DHT22;68292;49.600;8.746;2023-08-01T15:00:17;25.00;58.00
28548;DHT22;68292;49.600;8.746;2023-08-01T15:02:45;25.00;58.20
28548;DHT22;68292;49.600;8.746;2023-08-01T15:05:15;25.10;58.30
28548;DHT22;68292;49.600;8.746;2023-08-01T15:07:43;25.10;58.10
28548;DHT22;68292;49.600;8.746;2023-08-01T15:10:11;25.00;58.00
28548;DHT22;68292;49.600;8.746;2023-08-01T15:12:39;25.10;58.00
28548;DHT22;68292;49.600;8.746;2023-08-01T15:15:10;25.10;57.80
28548;DHT22;68292;49.600;8.746;2023-08-01T15:17:38;25.10;57.70
28548;DHT22;68292;49.600;8.746;2023-08-01T15:20:06;25.10;57.70
28548;DHT22;68292;49.600;8.746;2023-08-01T15:22:36;25.10;57.70
28548;DHT22;68292;49.600;8.746;2023-08-01T15:25:05;25.10;57.60
28548;DHT22;68292;49.600;8.746;2023-08-01T15:27:33;25.00;57.60
28548;DHT22;68292;49.600;8.746;2023-08-01T15:30:01;25.10;57.60
28548;DHT22;68292;49.600;8.746;2023-08-01T15:32:31;25.10;57.30
28548;DHT22;68292;49.600;8.746;2023-08-01T15:35:00;25.00;57.20
28548;DHT22;68292;49.600;8.746;2023-08-01T15:37:28;25.00;57.40
28548;DHT22;68292;49.600;8.746;2023-08-01T15:39:56;25.00;57.30
28548;DHT22;68292;49.600;8.746;2023-08-01T15:42:24;25.00;57.30